createdAt,value
2023-03-06T00:01:05.139Z,31.10
2023-03-06T00:03:33.877Z,30.08
2023-03-06T00:06:01.636Z,31.15
2023-03-06T00:08:29.909Z,29.65
2023-03-06T00:10:57.549Z,28.23
2023-03-06T00:13:26.885Z,27.60
2023-03-06T00:15:54.058Z,30.77
2023-03-06T00:18:21.192Z,30.83
2023-03-06T00:20:48.410Z,30.65
2023-03-06T00:23:15.796Z,27.52
2023-03-06T00:25:45.153Z,26.90
2023-03-06T00:28:14.964Z,27.52
2023-03-06T00:30:42.845Z,28.13
2023-03-06T00:33:10.969Z,30.08
2023-03-06T00:35:41.684Z,27.73
2023-03-06T00:38:12.148Z,28.83
2023-03-06T00:40:39.623Z,31.02
2023-03-06T00:43:06.665Z,30.70
2023-03-06T00:45:33.848Z,28.65
2023-03-06T00:48:01.401Z,28.85
2023-03-06T00:50:28.453Z,30.08
2023-03-06T00:52:55.436Z,30.92
2023-03-06T00:55:25.050Z,29.42
2023-03-06T00:57:52.115Z,28.88
2023-03-06T01:00:20.058Z,27.63
2023-03-06T01:02:50.972Z,27.75
2023-03-06T01:05:18.180Z,29.60
2023-03-06T01:07:45.139Z,27.40
2023-03-06T01:10:12.967Z,27.73
2023-03-06T01:12:41.171Z,29.17
2023-03-06T01:15:09.224Z,26.52
2023-03-06T01:17:36.314Z,25.40
2023-03-06T01:20:04.843Z,26.23
2023-03-06T01:22:31.934Z,27.27
2023-03-06T01:25:00.025Z,28.20
2023-03-06T01:27:27.141Z,25.90
2023-03-06T01:29:54.159Z,26.92
2023-03-06T01:32:22.130Z,25.88
2023-03-06T01:34:50.276Z,25.52
2023-03-06T01:37:17.695Z,26.42
2023-03-06T01:39:44.792Z,26.08
2023-03-06T01:42:12.297Z,25.20
2023-03-06T01:45:05.526Z,26.30
2023-03-06T01:47:36.522Z,25.85
2023-03-06T01:50:10.539Z,27.17
2023-03-06T01:52:54.837Z,26.92
2023-03-06T01:55:35.375Z,29.27
2023-03-06T01:58:11.360Z,27.63
2023-03-06T02:00:39.449Z,30.75
2023-03-06T02:03:15.150Z,29.98
2023-03-06T02:05:44.133Z,27.60
2023-03-06T02:08:15.580Z,26.95
2023-03-06T02:10:58.752Z,25.80
2023-03-06T02:13:25.937Z,27.85
2023-03-06T02:15:52.997Z,26.13
2023-03-06T02:18:20.318Z,26.48
2023-03-06T02:20:53.659Z,26.50
2023-03-06T02:23:57.687Z,28.17
2023-03-06T02:26:28.165Z,27.98
2023-03-06T02:28:57.550Z,27.30
2023-03-06T02:31:30.286Z,28.33
2023-03-06T02:34:16.320Z,29.33
2023-03-06T02:36:48.805Z,28.98
2023-03-06T02:39:19.679Z,28.45
2023-03-06T02:41:49.833Z,31.85
2023-03-06T02:44:18.245Z,31.98
2023-03-06T02:46:45.368Z,32.55
2023-03-06T02:49:13.004Z,29.35
2023-03-06T02:51:40.574Z,29.25
2023-03-06T02:54:07.996Z,33.22
2023-03-06T02:56:35.317Z,33.88
2023-03-06T02:59:03.216Z,34.15
2023-03-06T03:01:31.183Z,32.13
2023-03-06T03:03:58.206Z,29.63
2023-03-06T03:06:25.321Z,31.23
2023-03-06T03:08:53.192Z,30.05
2023-03-06T03:11:20.667Z,32.22
2023-03-06T03:13:47.690Z,32.35
2023-03-06T03:16:20.459Z,29.25
2023-03-06T03:18:48.204Z,30.05
2023-03-06T03:21:18.693Z,30.73
2023-03-06T03:23:47.426Z,28.95
2023-03-06T03:26:22.595Z,30.63
2023-03-06T03:29:00.755Z,29.30
2023-03-06T03:31:27.937Z,29.25
2023-03-06T03:33:55.285Z,29.60
2023-03-06T03:36:23.155Z,31.30
2023-03-06T03:38:50.592Z,30.10
2023-03-06T03:41:17.825Z,30.70
2023-03-06T03:43:45.257Z,30.35
2023-03-06T03:46:15.041Z,29.42
2023-03-06T03:48:42.926Z,28.75
2023-03-06T03:51:13.749Z,27.10
2023-03-06T03:56:16.193Z,26.45
2023-03-06T03:58:53.214Z,29.33
2023-03-06T04:01:21.361Z,28.67
2023-03-06T04:03:48.565Z,27.77
2023-03-06T04:06:17.884Z,29.40
2023-03-06T04:08:45.430Z,30.08
2023-03-06T04:11:12.476Z,27.50
2023-03-06T04:13:40.024Z,28.45
2023-03-06T04:16:07.838Z,30.00
2023-03-06T04:18:37.394Z,30.88
2023-03-06T04:21:06.283Z,28.02
2023-03-06T04:23:34.502Z,31.73
2023-03-06T04:26:02.044Z,30.65
2023-03-06T04:28:29.439Z,29.40
2023-03-06T04:30:57.958Z,29.05
2023-03-06T04:33:25.365Z,30.85
2023-03-06T04:35:52.646Z,29.77
2023-03-06T04:38:24.889Z,29.10
2023-03-06T04:40:51.964Z,29.77
2023-03-06T04:43:19.504Z,29.02
2023-03-06T04:45:46.613Z,29.17
2023-03-06T04:48:17.228Z,30.23
2023-03-06T04:50:45.110Z,28.20
2023-03-06T04:53:12.430Z,29.77
2023-03-06T04:55:39.485Z,28.25
2023-03-06T04:58:06.565Z,31.80
2023-03-06T05:00:33.900Z,33.00
2023-03-06T05:03:02.096Z,30.73
2023-03-06T05:05:29.749Z,30.83
2023-03-06T05:07:57.407Z,31.85
2023-03-06T05:10:24.731Z,32.63
2023-03-06T05:12:51.962Z,28.83
2023-03-06T05:15:19.220Z,31.17
2023-03-06T05:17:47.759Z,31.38
2023-03-06T05:20:16.706Z,29.92
2023-03-06T05:22:44.511Z,28.67
2023-03-06T05:25:12.638Z,28.80
2023-03-06T05:27:39.944Z,30.75
2023-03-06T05:30:08.505Z,30.38
2023-03-06T05:32:36.260Z,30.08
2023-03-06T05:35:05.069Z,30.15
2023-03-06T05:37:33.511Z,29.27
2023-03-06T05:40:00.742Z,29.65
2023-03-06T05:42:31.246Z,30.90
2023-03-06T05:44:58.338Z,30.73
2023-03-06T05:47:25.560Z,29.40
2023-03-06T05:49:52.764Z,27.90
2023-03-06T05:52:19.866Z,26.15
2023-03-06T05:54:51.859Z,26.98
2023-03-06T05:57:21.570Z,29.45
2023-03-06T05:59:50.124Z,29.55
2023-03-06T06:02:19.626Z,28.23
2023-03-06T06:04:47.360Z,30.27
2023-03-06T06:07:16.421Z,30.20
2023-03-06T06:09:45.776Z,30.95
2023-03-06T06:12:14.314Z,33.72
2023-03-06T06:14:41.310Z,32.55
2023-03-06T06:17:08.533Z,31.08
2023-03-06T06:19:35.809Z,29.52
2023-03-06T06:22:03.958Z,31.30
2023-03-06T06:24:32.461Z,31.08
2023-03-06T06:27:03.637Z,29.48
2023-03-06T06:29:31.714Z,30.85
2023-03-06T06:31:59.055Z,29.92
2023-03-06T06:34:27.076Z,28.58
2023-03-06T06:36:55.051Z,29.70
2023-03-06T06:39:23.770Z,29.77
2023-03-06T06:42:09.538Z,31.63
2023-03-06T06:44:40.234Z,30.83
2023-03-06T06:47:22.430Z,30.10
2023-03-06T06:49:55.742Z,29.23
2023-03-06T06:52:25.502Z,28.08
2023-03-06T06:54:53.901Z,28.90
2023-03-06T06:57:22.162Z,26.48
2023-03-06T06:59:51.270Z,27.83
2023-03-06T07:02:19.820Z,28.10
2023-03-06T07:05:02.344Z,29.30
2023-03-06T07:07:31.717Z,35.17
2023-03-06T07:09:59.126Z,32.60
2023-03-06T07:12:26.278Z,27.98
2023-03-06T07:14:53.367Z,29.17
2023-03-06T07:17:20.539Z,26.67
2023-03-06T07:19:48.352Z,29.85
2023-03-06T07:22:15.580Z,29.58
2023-03-06T07:24:42.751Z,28.40
2023-03-06T07:27:09.813Z,29.30
2023-03-06T07:29:37.087Z,30.60
2023-03-06T07:32:04.396Z,31.90
2023-03-06T07:34:31.914Z,28.80
2023-03-06T07:36:59.057Z,29.15
2023-03-06T07:39:28.225Z,28.58
2023-03-06T07:41:55.287Z,28.10
2023-03-06T07:44:23.009Z,28.98
2023-03-06T07:46:50.284Z,26.15
2023-03-06T07:49:18.263Z,28.10
2023-03-06T07:51:45.485Z,28.42
2023-03-06T07:54:12.599Z,29.50
2023-03-06T07:56:39.968Z,27.42
2023-03-06T07:59:07.119Z,28.27
2023-03-06T08:01:34.388Z,29.15
2023-03-06T08:04:02.222Z,26.45
2023-03-06T08:06:29.482Z,26.52
2023-03-06T08:08:57.260Z,24.83
2023-03-06T08:11:30.278Z,23.25
2023-03-06T08:14:01.296Z,24.23
2023-03-06T08:16:30.675Z,25.08
2023-03-06T08:18:58.235Z,24.33
2023-03-06T08:21:28.164Z,25.17
2023-03-06T08:23:56.641Z,23.33
2023-03-06T08:26:29.752Z,25.25
2023-03-06T08:28:59.834Z,22.65
2023-03-06T08:31:36.394Z,23.85
2023-03-06T08:34:07.398Z,22.92
2023-03-06T08:36:34.795Z,22.17
2023-03-06T08:39:02.435Z,22.52
2023-03-06T08:41:30.314Z,20.73
2023-03-06T08:43:57.727Z,20.42
2023-03-06T08:46:27.245Z,21.20
2023-03-06T08:48:59.483Z,21.73
2023-03-06T08:51:29.048Z,21.45
2023-03-06T08:53:59.959Z,22.35
2023-03-06T08:56:33.046Z,21.02
2023-03-06T08:59:04.081Z,22.13
2023-03-06T09:01:37.879Z,21.05
2023-03-06T09:04:10.588Z,22.05
2023-03-06T09:06:42.573Z,22.83
2023-03-06T09:09:10.939Z,21.73
2023-03-06T09:11:38.868Z,20.98
2023-03-06T09:14:06.509Z,21.02
2023-03-06T09:16:33.967Z,20.35
2023-03-06T09:19:01.401Z,21.02
2023-03-06T09:21:28.821Z,20.42
2023-03-06T09:23:56.272Z,21.25
2023-03-06T09:26:32.808Z,20.05
2023-03-06T09:29:07.877Z,21.05
2023-03-06T09:31:35.043Z,19.13
2023-03-06T09:34:02.232Z,19.75
2023-03-06T09:36:29.405Z,17.33
2023-03-06T09:38:57.076Z,19.85
2023-03-06T09:41:29.437Z,18.42
2023-03-06T09:44:05.105Z,19.05
2023-03-06T09:47:20.182Z,20.25
2023-03-06T09:50:47.038Z,20.95
2023-03-06T09:54:03.011Z,22.70
2023-03-06T09:56:34.525Z,20.92
2023-03-06T09:59:22.910Z,18.58
2023-03-06T10:02:09.470Z,22.77
2023-03-06T10:04:44.710Z,20.48
2023-03-06T10:07:25.588Z,21.35
2023-03-06T10:10:04.217Z,18.50
2023-03-06T10:12:42.585Z,16.85
2023-03-06T10:15:26.058Z,17.50
2023-03-06T10:17:53.562Z,18.08
2023-03-06T10:20:41.612Z,19.73
2023-03-06T10:23:52.790Z,17.90
2023-03-06T10:26:28.013Z,19.73
2023-03-06T10:30:01.307Z,19.42
2023-03-06T10:32:55.290Z,17.95
2023-03-06T10:35:30.644Z,19.88
2023-03-06T10:38:16.311Z,19.60
2023-03-06T10:41:01.113Z,20.40
2023-03-06T10:43:28.556Z,16.95
2023-03-06T10:45:55.862Z,12.80
2023-03-06T10:48:27.096Z,15.77
2023-03-06T10:51:20.981Z,16.02
2023-03-06T10:53:54.956Z,15.10
2023-03-06T10:56:35.486Z,16.33
2023-03-06T10:59:19.941Z,14.60
2023-03-06T11:01:57.214Z,11.43
2023-03-06T11:04:36.786Z,13.05
2023-03-06T11:07:20.692Z,11.65
2023-03-06T11:10:19.601Z,12.40
2023-03-06T11:13:07.696Z,11.50
2023-03-06T11:15:34.989Z,13.82
2023-03-06T11:18:23.872Z,14.85
2023-03-06T11:20:54.681Z,12.07
2023-03-06T11:23:39.669Z,13.43
2023-03-06T11:26:15.946Z,13.60
2023-03-06T11:29:03.291Z,12.63
2023-03-06T11:32:10.213Z,13.95
2023-03-06T11:34:53.811Z,15.50
2023-03-06T11:37:57.508Z,13.82
2023-03-06T11:40:34.067Z,15.60
2023-03-06T11:43:30.134Z,16.48
2023-03-06T11:46:11.458Z,15.32
2023-03-06T11:48:54.172Z,15.98
2023-03-06T11:51:34.944Z,16.80
2023-03-06T11:54:03.091Z,16.33
2023-03-06T11:56:50.645Z,17.85
2023-03-06T11:59:46.132Z,17.13
2023-03-06T12:02:28.631Z,17.00
2023-03-06T12:05:53.355Z,17.08
2023-03-06T12:08:46.469Z,18.02
2023-03-06T12:11:35.933Z,17.60
2023-03-06T12:14:16.395Z,15.38
2023-03-06T12:17:09.293Z,16.35
2023-03-06T12:20:07.277Z,16.73
2023-03-06T12:22:53.402Z,17.75
2023-03-06T12:25:49.288Z,17.88
2023-03-06T12:28:36.756Z,17.83
2023-03-06T12:32:01.832Z,18.73
2023-03-06T12:34:51.182Z,16.83
2023-03-06T12:37:29.220Z,16.48
2023-03-06T12:40:23.944Z,17.58
2023-03-06T12:43:22.872Z,17.85
2023-03-06T12:45:56.100Z,18.75
2023-03-06T12:48:29.605Z,17.13
2023-03-06T12:50:57.880Z,17.73
2023-03-06T12:53:31.352Z,17.83
2023-03-06T12:56:02.279Z,16.95
2023-03-06T12:58:30.050Z,17.27
2023-03-06T13:01:09.909Z,15.77
2023-03-06T13:04:01.456Z,16.00
2023-03-06T13:06:54.970Z,17.42
2023-03-06T13:09:40.405Z,15.98
2023-03-06T13:12:19.908Z,16.58
2023-03-06T13:14:54.062Z,17.50
2023-03-06T13:17:24.267Z,17.10
2023-03-06T13:20:20.487Z,16.30
2023-03-06T13:22:48.187Z,16.48
2023-03-06T13:25:21.064Z,16.10
2023-03-06T13:27:54.414Z,15.82
2023-03-06T13:30:28.434Z,16.80
2023-03-06T13:32:56.558Z,15.50
2023-03-06T13:35:52.649Z,16.67
2023-03-06T13:39:06.266Z,17.63
2023-03-06T13:41:37.615Z,16.50
2023-03-06T13:44:28.270Z,18.55
2023-03-06T13:47:02.004Z,16.58
2023-03-06T13:49:30.056Z,16.48
2023-03-06T13:52:23.346Z,16.55
2023-03-06T13:55:24.173Z,17.20
2023-03-06T13:58:41.592Z,16.55
2023-03-06T14:01:59.373Z,16.73
2023-03-06T14:04:38.688Z,16.35
2023-03-06T14:07:19.754Z,15.25
2023-03-06T14:10:25.323Z,15.70
2023-03-06T14:12:55.412Z,16.65
2023-03-06T14:15:55.659Z,16.65
2023-03-06T14:18:27.119Z,16.30
2023-03-06T14:21:00.728Z,14.98
2023-03-06T14:23:32.266Z,15.35
2023-03-06T14:26:05.919Z,15.80
2023-03-06T14:28:34.885Z,16.10
2023-03-06T14:31:05.035Z,16.38
2023-03-06T14:33:34.960Z,15.32
2023-03-06T14:36:08.310Z,14.68
2023-03-06T14:38:45.762Z,17.45
2023-03-06T14:41:14.147Z,16.17
2023-03-06T14:43:41.401Z,16.13
2023-03-06T14:46:21.164Z,16.42
2023-03-06T14:48:49.823Z,16.13
2023-03-06T14:51:23.597Z,17.83
2023-03-06T14:53:54.216Z,17.60
2023-03-06T14:56:27.569Z,16.58
2023-03-06T14:59:06.491Z,15.82
2023-03-06T15:01:48.656Z,16.50
2023-03-06T15:04:27.974Z,16.75
2023-03-06T15:06:58.185Z,16.70
2023-03-06T15:09:25.377Z,16.23
2023-03-06T15:12:01.780Z,16.52
2023-03-06T15:14:31.070Z,15.82
2023-03-06T15:17:17.686Z,19.63
2023-03-06T15:19:48.806Z,16.00
2023-03-06T15:22:41.751Z,16.42
2023-03-06T15:25:32.158Z,14.68
2023-03-06T15:28:22.158Z,18.13
2023-03-06T15:31:21.417Z,16.25
2023-03-06T15:34:23.455Z,17.05
2023-03-06T15:36:55.921Z,17.20
2023-03-06T15:39:41.145Z,16.17
2023-03-06T15:42:26.643Z,17.02
2023-03-06T15:45:05.767Z,17.52
2023-03-06T15:47:32.902Z,16.30
2023-03-06T15:50:00.085Z,17.50
2023-03-06T15:52:27.235Z,16.10
2023-03-06T15:54:54.363Z,16.33
2023-03-06T15:57:26.680Z,16.27
2023-03-06T15:59:54.485Z,16.55
2023-03-06T16:02:24.348Z,15.57
2023-03-06T16:04:52.526Z,17.13
2023-03-06T16:07:20.730Z,18.25
2023-03-06T16:09:48.758Z,16.27
2023-03-06T16:12:21.109Z,16.40
2023-03-06T16:14:51.497Z,17.65
2023-03-06T16:17:18.769Z,17.85
2023-03-06T16:19:46.027Z,16.65
2023-03-06T16:22:13.890Z,16.65
2023-03-06T16:24:41.980Z,15.05
2023-03-06T16:27:20.597Z,16.65
2023-03-06T16:29:47.924Z,17.15
2023-03-06T16:32:15.141Z,15.57
2023-03-06T16:34:42.341Z,17.77
2023-03-06T16:37:13.203Z,16.63
2023-03-06T16:39:40.321Z,16.35
2023-03-06T16:42:07.622Z,16.30
2023-03-06T16:44:35.181Z,17.00
2023-03-06T16:47:02.279Z,16.42
2023-03-06T16:49:29.508Z,15.55
2023-03-06T16:51:56.645Z,17.85
2023-03-06T16:54:26.794Z,15.88
2023-03-06T16:56:54.685Z,17.10
2023-03-06T16:59:22.060Z,16.27
2023-03-06T17:01:49.497Z,16.88
2023-03-06T17:04:16.754Z,16.45
2023-03-06T17:06:43.908Z,16.48
2023-03-06T17:09:11.760Z,17.50
2023-03-06T17:11:39.353Z,17.20
2023-03-06T17:14:07.076Z,16.92
2023-03-06T17:16:36.576Z,19.55
2023-03-06T17:19:03.757Z,16.98
2023-03-06T17:21:31.064Z,16.67
2023-03-06T17:23:58.387Z,18.92
2023-03-06T17:26:26.633Z,19.48
2023-03-06T17:28:55.926Z,18.55
2023-03-06T17:31:27.838Z,18.40
2023-03-06T17:34:00.358Z,18.52
2023-03-06T17:36:31.993Z,18.58
2023-03-06T17:39:02.168Z,19.20
2023-03-06T17:41:29.990Z,19.42
2023-03-06T17:43:58.468Z,17.90
2023-03-06T17:46:26.115Z,17.23
2023-03-06T17:48:53.572Z,19.33
2023-03-06T17:51:21.086Z,18.85
2023-03-06T17:53:49.416Z,17.27
2023-03-06T17:56:16.658Z,18.35
2023-03-06T17:58:44.054Z,19.17
2023-03-06T18:01:18.368Z,21.13
2023-03-06T18:03:49.285Z,23.65
2023-03-06T18:06:18.469Z,22.52
2023-03-06T18:08:46.122Z,21.50
2023-03-06T18:11:14.434Z,23.63
2023-03-06T18:13:44.139Z,25.85
2023-03-06T18:16:14.997Z,24.15
2023-03-06T18:18:42.141Z,23.10
2023-03-06T18:21:12.795Z,23.23
2023-03-06T18:23:40.902Z,22.33
2023-03-06T18:26:20.964Z,21.75
2023-03-06T18:28:53.054Z,21.80
2023-03-06T18:31:25.499Z,20.58
2023-03-06T18:33:55.642Z,19.98
2023-03-06T18:36:27.026Z,19.55
2023-03-06T18:38:54.692Z,20.23
2023-03-06T18:41:22.866Z,22.63
2023-03-06T18:43:55.924Z,21.38
2023-03-06T18:46:24.120Z,23.90
2023-03-06T18:48:51.457Z,22.45
2023-03-06T18:51:20.237Z,25.92
2023-03-06T18:53:47.974Z,25.42
2023-03-06T18:56:22.876Z,23.92
2023-03-06T18:58:50.537Z,26.55
2023-03-06T19:01:18.598Z,23.33
2023-03-06T19:03:46.697Z,24.60
2023-03-06T19:06:17.246Z,23.05
2023-03-06T19:08:44.932Z,22.65
2023-03-06T19:11:16.649Z,22.98
2023-03-06T19:13:44.537Z,22.48
2023-03-06T19:16:21.373Z,23.08
2023-03-06T19:18:48.849Z,22.95
2023-03-06T19:21:19.727Z,28.48
2023-03-06T19:23:47.728Z,27.85
2023-03-06T19:26:16.546Z,27.67
2023-03-06T19:28:43.649Z,27.08
2023-03-06T19:31:20.147Z,27.10
2023-03-06T19:33:49.463Z,24.77
2023-03-06T19:36:18.688Z,28.17
2023-03-06T19:38:50.434Z,30.55
2023-03-06T19:41:17.562Z,26.88
2023-03-06T19:43:44.611Z,26.30
2023-03-06T19:46:13.929Z,26.85
2023-03-06T19:48:42.621Z,26.63
2023-03-06T19:51:10.583Z,29.63
2023-03-06T19:53:41.833Z,27.33
2023-03-06T19:56:14.997Z,27.27
2023-03-06T19:58:42.683Z,27.45
2023-03-06T20:01:16.635Z,26.52
2023-03-06T20:03:44.776Z,25.83
2023-03-06T20:06:18.761Z,28.40
2023-03-06T20:08:47.800Z,28.63
2023-03-06T20:11:25.333Z,30.77
2023-03-06T20:13:53.323Z,33.13
2023-03-06T20:16:20.703Z,32.20
2023-03-06T20:18:47.745Z,31.00
2023-03-06T20:21:15.837Z,30.83
2023-03-06T20:23:43.309Z,30.33
2023-03-06T20:26:14.371Z,29.88
2023-03-06T20:28:42.685Z,31.50
2023-03-06T20:31:20.095Z,30.85
2023-03-06T20:33:50.680Z,30.02
2023-03-06T20:36:28.998Z,31.05
2023-03-06T20:39:00.183Z,31.50
2023-03-06T20:41:30.307Z,30.90
2023-03-06T20:44:03.014Z,30.67
2023-03-06T20:46:30.656Z,31.67
2023-03-06T20:48:58.349Z,32.13
2023-03-06T20:51:31.805Z,37.45
2023-03-06T20:54:01.388Z,34.40
2023-03-06T20:56:32.168Z,33.58
2023-03-06T20:58:59.832Z,27.08
2023-03-06T21:01:33.267Z,29.73
2023-03-06T21:04:04.339Z,30.23
2023-03-06T21:06:32.302Z,29.42
2023-03-06T21:09:01.460Z,29.70
2023-03-06T21:11:28.854Z,27.70
2023-03-06T21:13:57.140Z,29.23
2023-03-06T21:16:26.814Z,30.85
2023-03-06T21:18:55.631Z,32.47
2023-03-06T21:21:25.979Z,36.13
2023-03-06T21:23:53.165Z,35.72
2023-03-06T21:26:23.462Z,32.13
2023-03-06T21:28:50.990Z,32.70
2023-03-06T21:31:21.748Z,32.67
2023-03-06T21:33:50.403Z,31.38
2023-03-06T21:36:21.488Z,31.67
2023-03-06T21:38:49.994Z,30.92
2023-03-06T21:41:26.796Z,31.73
2023-03-06T21:43:58.445Z,31.83
2023-03-06T21:46:27.703Z,31.02
2023-03-06T21:48:55.709Z,31.40
2023-03-06T21:51:24.164Z,30.08
2023-03-06T21:53:52.917Z,28.77
2023-03-06T21:56:25.044Z,29.42
2023-03-06T21:58:55.854Z,30.45
2023-03-06T22:01:29.169Z,30.73
2023-03-06T22:04:00.526Z,31.83
2023-03-06T22:06:31.190Z,30.65
2023-03-06T22:09:00.308Z,31.00
2023-03-06T22:11:31.479Z,32.28
2023-03-06T22:13:58.947Z,33.05
2023-03-06T22:16:26.169Z,31.75
2023-03-06T22:18:53.255Z,32.67
2023-03-06T22:21:22.617Z,30.48
2023-03-06T22:23:59.966Z,32.65
2023-03-06T22:26:28.818Z,31.48
2023-03-06T22:29:00.325Z,31.40
2023-03-06T22:31:29.075Z,32.53
2023-03-06T22:33:59.209Z,31.98
2023-03-06T22:36:28.615Z,33.08
2023-03-06T22:38:59.865Z,34.15
2023-03-06T22:41:28.833Z,33.50
2023-03-06T22:44:01.687Z,33.20
2023-03-06T22:46:29.241Z,34.17
2023-03-06T22:49:02.182Z,31.88
2023-03-06T22:51:29.910Z,31.30
2023-03-06T22:53:57.145Z,31.02
2023-03-06T22:56:25.642Z,33.65
2023-03-06T22:58:52.864Z,30.05
2023-03-06T23:01:25.320Z,29.13
2023-03-06T23:03:56.613Z,30.27
2023-03-06T23:06:32.568Z,30.52
2023-03-06T23:09:14.666Z,29.80
2023-03-06T23:12:00.649Z,31.15
2023-03-06T23:14:49.813Z,30.05
2023-03-06T23:17:35.592Z,30.13
2023-03-06T23:20:22.134Z,30.58
2023-03-06T23:23:07.990Z,31.15
2023-03-06T23:25:44.554Z,28.55
2023-03-06T23:28:12.444Z,30.85
2023-03-06T23:30:40.189Z,28.60
2023-03-06T23:33:08.460Z,30.58
2023-03-06T23:35:37.864Z,30.40
2023-03-06T23:38:05.442Z,28.80
2023-03-06T23:40:34.577Z,32.88
2023-03-06T23:43:02.473Z,31.75
2023-03-06T23:45:29.991Z,30.23
2023-03-06T23:47:57.253Z,29.40
2023-03-06T23:50:29.328Z,26.52
2023-03-06T23:52:56.515Z,28.70
2023-03-06T23:55:23.642Z,27.95
2023-03-06T23:57:50.715Z,30.33
